sensor_id;sensor_type;location;lat;lon;timestamp;P1;durP1;ratioP1;P2;durP2;ratioP2
58414;SDS011;44210;42.706;18.344;2022-07-03T00:02:17;8.60;;;3.75;;
58414;SDS011;44210;42.706;18.344;2022-07-03T00:04:43;13.45;;;3.97;;
58414;SDS011;44210;42.706;18.344;2022-07-03T00:07:09;9.40;;;3.88;;
58414;SDS011;44210;42.706;18.344;2022-07-03T00:09:35;6.55;;;3.70;;
58414;SDS011;44210;42.706;18.344;2022-07-03T00:12:01;7.32;;;3.80;;
58414;SDS011;44210;42.706;18.344;2022-07-03T00:14:27;7.55;;;3.80;;
58414;SDS011;44210;42.706;18.344;2022-07-03T00:16:53;7.60;;;4.05;;
58414;SDS011;44210;42.706;18.344;2022-07-03T00:19:19;8.30;;;3.50;;
58414;SDS011;44210;42.706;18.344;2022-07-03T00:21:51;8.60;;;3.95;;
58414;SDS011;44210;42.706;18.344;2022-07-03T00:26:44;7.80;;;3.78;;
58414;SDS011;44210;42.706;18.344;2022-07-03T00:29:13;10.02;;;3.85;;
58414;SDS011;44210;42.706;18.344;2022-07-03T00:31:41;11.50;;;4.80;;
58414;SDS011;44210;42.706;18.344;2022-07-03T00:34:08;12.93;;;3.53;;
58414;SDS011;44210;42.706;18.344;2022-07-03T00:36:37;7.40;;;3.85;;
58414;SDS011;44210;42.706;18.344;2022-07-03T00:39:03;9.60;;;4.22;;
58414;SDS011;44210;42.706;18.344;2022-07-03T00:41:31;8.35;;;3.72;;
58414;SDS011;44210;42.706;18.344;2022-07-03T00:43:57;9.25;;;4.32;;
58414;SDS011;44210;42.706;18.344;2022-07-03T00:46:24;10.13;;;4.13;;
58414;SDS011;44210;42.706;18.344;2022-07-03T00:48:51;9.27;;;3.78;;
58414;SDS011;44210;42.706;18.344;2022-07-03T00:51:21;11.85;;;4.22;;
58414;SDS011;44210;42.706;18.344;2022-07-03T00:53:49;10.82;;;4.00;;
58414;SDS011;44210;42.706;18.344;2022-07-03T00:56:16;12.98;;;4.22;;
58414;SDS011;44210;42.706;18.344;2022-07-03T00:58:43;9.82;;;3.78;;
58414;SDS011;44210;42.706;18.344;2022-07-03T01:01:09;11.73;;;4.60;;
58414;SDS011;44210;42.706;18.344;2022-07-03T01:03:39;10.23;;;4.00;;
58414;SDS011;44210;42.706;18.344;2022-07-03T01:06:13;12.63;;;4.05;;
58414;SDS011;44210;42.706;18.344;2022-07-03T01:08:45;11.43;;;4.75;;
58414;SDS011;44210;42.706;18.344;2022-07-03T01:16:27;8.95;;;4.03;;
58414;SDS011;44210;42.706;18.344;2022-07-03T01:19:04;9.13;;;4.15;;
58414;SDS011;44210;42.706;18.344;2022-07-03T01:21:36;9.10;;;3.80;;
58414;SDS011;44210;42.706;18.344;2022-07-03T01:26:39;7.82;;;4.05;;
58414;SDS011;44210;42.706;18.344;2022-07-03T01:29:08;9.38;;;3.75;;
58414;SDS011;44210;42.706;18.344;2022-07-03T01:31:34;9.02;;;3.38;;
58414;SDS011;44210;42.706;18.344;2022-07-03T01:34:01;8.50;;;4.22;;
58414;SDS011;44210;42.706;18.344;2022-07-03T01:36:29;7.43;;;4.05;;
58414;SDS011;44210;42.706;18.344;2022-07-03T01:38:56;9.27;;;4.25;;
58414;SDS011;44210;42.706;18.344;2022-07-03T01:41:25;7.97;;;3.80;;
58414;SDS011;44210;42.706;18.344;2022-07-03T01:43:55;10.48;;;4.18;;
58414;SDS011;44210;42.706;18.344;2022-07-03T01:46:27;9.40;;;4.28;;
58414;SDS011;44210;42.706;18.344;2022-07-03T01:48:53;9.90;;;4.60;;
58414;SDS011;44210;42.706;18.344;2022-07-03T01:51:20;11.57;;;3.65;;
58414;SDS011;44210;42.706;18.344;2022-07-03T01:53:48;9.85;;;4.20;;
58414;SDS011;44210;42.706;18.344;2022-07-03T01:56:15;12.23;;;4.32;;
58414;SDS011;44210;42.706;18.344;2022-07-03T01:58:42;8.07;;;4.28;;
58414;SDS011;44210;42.706;18.344;2022-07-03T02:01:10;7.97;;;3.60;;
58414;SDS011;44210;42.706;18.344;2022-07-03T02:03:42;11.95;;;4.53;;
58414;SDS011;44210;42.706;18.344;2022-07-03T02:06:54;10.93;;;4.28;;
58414;SDS011;44210;42.706;18.344;2022-07-03T02:09:04;11.32;;;3.95;;
58414;SDS011;44210;42.706;18.344;2022-07-03T02:11:48;10.20;;;3.72;;
58414;SDS011;44210;42.706;18.344;2022-07-03T02:14:18;7.90;;;4.20;;
58414;SDS011;44210;42.706;18.344;2022-07-03T02:17:07;8.60;;;4.70;;
58414;SDS011;44210;42.706;18.344;2022-07-03T02:22:15;9.70;;;4.57;;
58414;SDS011;44210;42.706;18.344;2022-07-03T02:24:44;13.23;;;4.75;;
58414;SDS011;44210;42.706;18.344;2022-07-03T02:27:17;11.57;;;4.10;;
58414;SDS011;44210;42.706;18.344;2022-07-03T02:29:49;10.90;;;4.05;;
58414;SDS011;44210;42.706;18.344;2022-07-03T02:32:17;10.00;;;4.15;;
58414;SDS011;44210;42.706;18.344;2022-07-03T02:34:55;10.65;;;4.57;;
58414;SDS011;44210;42.706;18.344;2022-07-03T02:37:22;10.25;;;4.57;;
58414;SDS011;44210;42.706;18.344;2022-07-03T02:39:51;10.05;;;4.25;;
58414;SDS011;44210;42.706;18.344;2022-07-03T02:45:04;9.52;;;4.60;;
58414;SDS011;44210;42.706;18.344;2022-07-03T02:50:12;11.55;;;4.30;;
58414;SDS011;44210;42.706;18.344;2022-07-03T02:55:32;9.18;;;4.28;;
58414;SDS011;44210;42.706;18.344;2022-07-03T03:00:33;10.05;;;4.43;;
58414;SDS011;44210;42.706;18.344;2022-07-03T03:03:00;8.57;;;4.60;;
58414;SDS011;44210;42.706;18.344;2022-07-03T03:05:28;11.75;;;4.60;;
58414;SDS011;44210;42.706;18.344;2022-07-03T03:08:08;11.32;;;4.90;;
58414;SDS011;44210;42.706;18.344;2022-07-03T03:10:37;6.65;;;3.85;;
58414;SDS011;44210;42.706;18.344;2022-07-03T03:13:04;6.82;;;3.83;;
58414;SDS011;44210;42.706;18.344;2022-07-03T03:15:31;10.82;;;4.40;;
58414;SDS011;44210;42.706;18.344;2022-07-03T03:18:00;8.55;;;4.30;;
58414;SDS011;44210;42.706;18.344;2022-07-03T03:20:33;9.35;;;4.32;;
58414;SDS011;44210;42.706;18.344;2022-07-03T03:25:45;8.77;;;4.35;;
58414;SDS011;44210;42.706;18.344;2022-07-03T03:28:12;8.77;;;4.38;;
58414;SDS011;44210;42.706;18.344;2022-07-03T03:30:38;12.07;;;4.20;;
58414;SDS011;44210;42.706;18.344;2022-07-03T03:33:05;11.32;;;4.88;;
58414;SDS011;44210;42.706;18.344;2022-07-03T03:35:35;12.63;;;4.90;;
58414;SDS011;44210;42.706;18.344;2022-07-03T03:38:01;7.00;;;3.88;;
58414;SDS011;44210;42.706;18.344;2022-07-03T03:40:27;12.68;;;4.97;;
58414;SDS011;44210;42.706;18.344;2022-07-03T03:42:53;9.10;;;3.70;;
58414;SDS011;44210;42.706;18.344;2022-07-03T03:45:19;9.82;;;4.47;;
58414;SDS011;44210;42.706;18.344;2022-07-03T03:47:45;12.10;;;5.20;;
58414;SDS011;44210;42.706;18.344;2022-07-03T03:50:12;12.25;;;4.38;;
58414;SDS011;44210;42.706;18.344;2022-07-03T03:52:38;8.75;;;4.60;;
58414;SDS011;44210;42.706;18.344;2022-07-03T03:55:04;15.10;;;4.88;;
58414;SDS011;44210;42.706;18.344;2022-07-03T03:57:30;9.90;;;4.55;;
58414;SDS011;44210;42.706;18.344;2022-07-03T03:59:56;11.50;;;4.18;;
58414;SDS011;44210;42.706;18.344;2022-07-03T04:02:22;6.90;;;4.75;;
58414;SDS011;44210;42.706;18.344;2022-07-03T04:04:49;9.02;;;4.50;;
58414;SDS011;44210;42.706;18.344;2022-07-03T04:07:15;10.63;;;4.70;;
58414;SDS011;44210;42.706;18.344;2022-07-03T04:09:41;12.55;;;4.85;;
58414;SDS011;44210;42.706;18.344;2022-07-03T04:12:07;9.30;;;5.05;;
58414;SDS011;44210;42.706;18.344;2022-07-03T04:14:33;9.93;;;4.55;;
58414;SDS011;44210;42.706;18.344;2022-07-03T04:16:59;11.77;;;4.80;;
58414;SDS011;44210;42.706;18.344;2022-07-03T04:19:25;13.32;;;4.95;;
58414;SDS011;44210;42.706;18.344;2022-07-03T04:21:51;12.95;;;4.70;;
58414;SDS011;44210;42.706;18.344;2022-07-03T04:24:17;8.02;;;4.43;;
58414;SDS011;44210;42.706;18.344;2022-07-03T04:26:44;9.85;;;4.35;;
58414;SDS011;44210;42.706;18.344;2022-07-03T04:29:10;11.00;;;4.75;;
58414;SDS011;44210;42.706;18.344;2022-07-03T04:31:36;14.05;;;5.22;;
58414;SDS011;44210;42.706;18.344;2022-07-03T04:34:02;10.52;;;4.88;;
58414;SDS011;44210;42.706;18.344;2022-07-03T04:36:28;13.15;;;5.32;;
58414;SDS011;44210;42.706;18.344;2022-07-03T04:38:54;13.88;;;4.93;;
58414;SDS011;44210;42.706;18.344;2022-07-03T04:41:20;9.90;;;4.70;;
58414;SDS011;44210;42.706;18.344;2022-07-03T04:43:46;12.88;;;5.45;;
58414;SDS011;44210;42.706;18.344;2022-07-03T04:46:12;9.15;;;4.60;;
58414;SDS011;44210;42.706;18.344;2022-07-03T04:48:38;8.38;;;5.00;;
58414;SDS011;44210;42.706;18.344;2022-07-03T04:51:04;11.82;;;5.35;;
58414;SDS011;44210;42.706;18.344;2022-07-03T04:53:30;13.75;;;4.93;;
58414;SDS011;44210;42.706;18.344;2022-07-03T04:55:56;7.05;;;4.30;;
58414;SDS011;44210;42.706;18.344;2022-07-03T04:58:22;13.43;;;5.38;;
58414;SDS011;44210;42.706;18.344;2022-07-03T05:00:48;9.35;;;4.32;;
58414;SDS011;44210;42.706;18.344;2022-07-03T05:03:14;16.15;;;4.47;;
58414;SDS011;44210;42.706;18.344;2022-07-03T05:05:40;8.48;;;4.60;;
58414;SDS011;44210;42.706;18.344;2022-07-03T05:08:07;8.35;;;4.40;;
58414;SDS011;44210;42.706;18.344;2022-07-03T05:10:33;11.25;;;4.95;;
58414;SDS011;44210;42.706;18.344;2022-07-03T05:12:59;8.52;;;4.57;;
58414;SDS011;44210;42.706;18.344;2022-07-03T05:15:25;6.97;;;4.60;;
58414;SDS011;44210;42.706;18.344;2022-07-03T05:17:51;7.20;;;3.95;;
58414;SDS011;44210;42.706;18.344;2022-07-03T05:20:17;9.90;;;4.32;;
58414;SDS011;44210;42.706;18.344;2022-07-03T05:22:49;9.13;;;4.15;;
58414;SDS011;44210;42.706;18.344;2022-07-03T05:25:15;10.48;;;4.50;;
58414;SDS011;44210;42.706;18.344;2022-07-03T05:27:41;13.60;;;5.38;;
58414;SDS011;44210;42.706;18.344;2022-07-03T05:30:07;10.63;;;4.32;;
58414;SDS011;44210;42.706;18.344;2022-07-03T05:32:33;10.30;;;4.80;;
58414;SDS011;44210;42.706;18.344;2022-07-03T05:34:59;7.70;;;4.35;;
58414;SDS011;44210;42.706;18.344;2022-07-03T05:37:26;11.35;;;4.78;;
58414;SDS011;44210;42.706;18.344;2022-07-03T05:39:52;9.70;;;5.28;;
58414;SDS011;44210;42.706;18.344;2022-07-03T05:42:18;12.43;;;4.95;;
58414;SDS011;44210;42.706;18.344;2022-07-03T05:44:44;11.98;;;5.45;;
58414;SDS011;44210;42.706;18.344;2022-07-03T05:47:10;12.70;;;4.70;;
58414;SDS011;44210;42.706;18.344;2022-07-03T05:49:36;7.57;;;5.13;;
58414;SDS011;44210;42.706;18.344;2022-07-03T05:52:02;11.30;;;5.20;;
58414;SDS011;44210;42.706;18.344;2022-07-03T05:54:28;12.18;;;5.22;;
58414;SDS011;44210;42.706;18.344;2022-07-03T05:56:54;8.57;;;5.00;;
58414;SDS011;44210;42.706;18.344;2022-07-03T05:59:20;14.15;;;4.82;;
58414;SDS011;44210;42.706;18.344;2022-07-03T06:01:46;11.52;;;5.70;;
58414;SDS011;44210;42.706;18.344;2022-07-03T06:04:14;11.20;;;5.72;;
58414;SDS011;44210;42.706;18.344;2022-07-03T06:06:40;12.05;;;4.78;;
58414;SDS011;44210;42.706;18.344;2022-07-03T06:09:06;9.73;;;4.80;;
58414;SDS011;44210;42.706;18.344;2022-07-03T06:11:32;12.48;;;5.28;;
58414;SDS011;44210;42.706;18.344;2022-07-03T06:13:58;9.45;;;4.65;;
58414;SDS011;44210;42.706;18.344;2022-07-03T06:16:24;6.78;;;4.53;;
58414;SDS011;44210;42.706;18.344;2022-07-03T06:18:50;8.80;;;4.35;;
58414;SDS011;44210;42.706;18.344;2022-07-03T06:21:16;8.20;;;4.80;;
58414;SDS011;44210;42.706;18.344;2022-07-03T06:23:42;6.55;;;4.47;;
58414;SDS011;44210;42.706;18.344;2022-07-03T06:26:08;13.35;;;5.53;;
58414;SDS011;44210;42.706;18.344;2022-07-03T06:28:34;15.95;;;5.30;;
58414;SDS011;44210;42.706;18.344;2022-07-03T06:31:00;9.68;;;4.43;;
58414;SDS011;44210;42.706;18.344;2022-07-03T06:33:26;9.48;;;5.28;;
58414;SDS011;44210;42.706;18.344;2022-07-03T06:35:52;12.02;;;4.50;;
58414;SDS011;44210;42.706;18.344;2022-07-03T06:38:18;8.43;;;4.70;;
58414;SDS011;44210;42.706;18.344;2022-07-03T06:40:44;7.18;;;4.20;;
58414;SDS011;44210;42.706;18.344;2022-07-03T06:43:10;10.75;;;4.47;;
58414;SDS011;44210;42.706;18.344;2022-07-03T06:45:36;9.50;;;4.57;;
58414;SDS011;44210;42.706;18.344;2022-07-03T06:48:03;9.68;;;4.95;;
58414;SDS011;44210;42.706;18.344;2022-07-03T06:50:29;10.88;;;4.82;;
58414;SDS011;44210;42.706;18.344;2022-07-03T06:52:55;8.68;;;5.18;;
58414;SDS011;44210;42.706;18.344;2022-07-03T06:55:21;9.70;;;5.03;;
58414;SDS011;44210;42.706;18.344;2022-07-03T06:57:48;8.70;;;5.18;;
58414;SDS011;44210;42.706;18.344;2022-07-03T07:00:15;12.60;;;5.68;;
58414;SDS011;44210;42.706;18.344;2022-07-03T07:02:41;8.70;;;4.60;;
58414;SDS011;44210;42.706;18.344;2022-07-03T07:05:07;8.07;;;5.13;;
58414;SDS011;44210;42.706;18.344;2022-07-03T07:07:33;12.27;;;4.53;;
58414;SDS011;44210;42.706;18.344;2022-07-03T07:09:59;11.98;;;4.40;;
58414;SDS011;44210;42.706;18.344;2022-07-03T07:12:25;11.77;;;4.68;;
58414;SDS011;44210;42.706;18.344;2022-07-03T07:14:51;10.77;;;5.05;;
58414;SDS011;44210;42.706;18.344;2022-07-03T07:17:17;13.23;;;4.95;;
58414;SDS011;44210;42.706;18.344;2022-07-03T07:19:43;8.77;;;4.72;;
58414;SDS011;44210;42.706;18.344;2022-07-03T07:22:09;10.98;;;4.93;;
58414;SDS011;44210;42.706;18.344;2022-07-03T07:24:35;7.35;;;4.78;;
58414;SDS011;44210;42.706;18.344;2022-07-03T07:27:02;8.40;;;5.28;;
58414;SDS011;44210;42.706;18.344;2022-07-03T07:29:28;13.65;;;5.45;;
58414;SDS011;44210;42.706;18.344;2022-07-03T07:31:54;13.35;;;5.10;;
58414;SDS011;44210;42.706;18.344;2022-07-03T07:34:20;10.88;;;4.80;;
58414;SDS011;44210;42.706;18.344;2022-07-03T07:36:46;12.77;;;5.47;;
58414;SDS011;44210;42.706;18.344;2022-07-03T07:39:12;13.82;;;5.68;;
58414;SDS011;44210;42.706;18.344;2022-07-03T07:41:38;8.60;;;5.13;;
58414;SDS011;44210;42.706;18.344;2022-07-03T07:44:04;9.90;;;5.20;;
58414;SDS011;44210;42.706;18.344;2022-07-03T07:46:30;8.93;;;4.85;;
58414;SDS011;44210;42.706;18.344;2022-07-03T07:48:57;8.65;;;4.75;;
58414;SDS011;44210;42.706;18.344;2022-07-03T07:51:23;13.82;;;5.57;;
58414;SDS011;44210;42.706;18.344;2022-07-03T07:53:49;10.15;;;5.40;;
58414;SDS011;44210;42.706;18.344;2022-07-03T07:56:17;13.00;;;5.05;;
58414;SDS011;44210;42.706;18.344;2022-07-03T07:58:43;7.47;;;4.82;;
58414;SDS011;44210;42.706;18.344;2022-07-03T08:01:09;7.25;;;4.32;;
58414;SDS011;44210;42.706;18.344;2022-07-03T08:03:54;14.00;;;5.13;;
58414;SDS011;44210;42.706;18.344;2022-07-03T08:06:38;8.82;;;5.03;;
58414;SDS011;44210;42.706;18.344;2022-07-03T08:09:04;9.27;;;4.63;;
58414;SDS011;44210;42.706;18.344;2022-07-03T08:11:31;8.38;;;4.40;;
58414;SDS011;44210;42.706;18.344;2022-07-03T08:13:57;10.20;;;4.88;;
58414;SDS011;44210;42.706;18.344;2022-07-03T08:16:23;13.80;;;5.32;;
58414;SDS011;44210;42.706;18.344;2022-07-03T08:18:49;10.32;;;4.72;;
58414;SDS011;44210;42.706;18.344;2022-07-03T08:21:15;7.05;;;4.18;;
58414;SDS011;44210;42.706;18.344;2022-07-03T08:23:41;11.13;;;5.07;;
58414;SDS011;44210;42.706;18.344;2022-07-03T08:26:07;12.35;;;4.55;;
58414;SDS011;44210;42.706;18.344;2022-07-03T08:28:33;8.60;;;4.65;;
58414;SDS011;44210;42.706;18.344;2022-07-03T08:30:59;7.60;;;4.45;;
58414;SDS011;44210;42.706;18.344;2022-07-03T08:33:25;8.60;;;4.32;;
58414;SDS011;44210;42.706;18.344;2022-07-03T08:35:51;10.05;;;5.03;;
58414;SDS011;44210;42.706;18.344;2022-07-03T08:38:17;10.50;;;4.88;;
58414;SDS011;44210;42.706;18.344;2022-07-03T08:40:43;7.45;;;3.78;;
58414;SDS011;44210;42.706;18.344;2022-07-03T08:43:10;13.48;;;4.55;;
58414;SDS011;44210;42.706;18.344;2022-07-03T08:45:37;8.35;;;4.20;;
58414;SDS011;44210;42.706;18.344;2022-07-03T08:48:04;11.00;;;4.43;;
58414;SDS011;44210;42.706;18.344;2022-07-03T08:50:33;6.97;;;3.92;;
58414;SDS011;44210;42.706;18.344;2022-07-03T08:52:59;10.30;;;4.07;;
58414;SDS011;44210;42.706;18.344;2022-07-03T08:55:25;8.68;;;4.88;;
58414;SDS011;44210;42.706;18.344;2022-07-03T08:57:51;10.18;;;3.90;;
58414;SDS011;44210;42.706;18.344;2022-07-03T09:00:20;6.68;;;4.18;;
58414;SDS011;44210;42.706;18.344;2022-07-03T09:02:47;9.82;;;4.63;;
58414;SDS011;44210;42.706;18.344;2022-07-03T09:05:14;8.07;;;3.80;;
58414;SDS011;44210;42.706;18.344;2022-07-03T09:07:44;14.10;;;6.63;;
58414;SDS011;44210;42.706;18.344;2022-07-03T09:10:11;9.40;;;4.25;;
58414;SDS011;44210;42.706;18.344;2022-07-03T09:12:38;6.78;;;4.05;;
58414;SDS011;44210;42.706;18.344;2022-07-03T09:15:05;6.15;;;3.80;;
58414;SDS011;44210;42.706;18.344;2022-07-03T09:17:31;10.13;;;4.03;;
58414;SDS011;44210;42.706;18.344;2022-07-03T09:19:58;8.98;;;3.78;;
58414;SDS011;44210;42.706;18.344;2022-07-03T09:22:25;9.85;;;4.57;;
58414;SDS011;44210;42.706;18.344;2022-07-03T09:24:53;12.13;;;5.10;;
58414;SDS011;44210;42.706;18.344;2022-07-03T09:27:20;10.32;;;3.97;;
58414;SDS011;44210;42.706;18.344;2022-07-03T09:32:25;8.52;;;4.72;;
58414;SDS011;44210;42.706;18.344;2022-07-03T09:37:36;8.45;;;4.28;;
58414;SDS011;44210;42.706;18.344;2022-07-03T09:40:02;13.48;;;4.22;;
58414;SDS011;44210;42.706;18.344;2022-07-03T09:42:28;10.98;;;3.95;;
58414;SDS011;44210;42.706;18.344;2022-07-03T09:44:55;11.25;;;3.80;;
58414;SDS011;44210;42.706;18.344;2022-07-03T09:49:53;5.93;;;3.53;;
58414;SDS011;44210;42.706;18.344;2022-07-03T09:52:36;10.00;;;4.15;;
58414;SDS011;44210;42.706;18.344;2022-07-03T10:00:30;9.82;;;3.72;;
58414;SDS011;44210;42.706;18.344;2022-07-03T10:03:09;7.72;;;3.45;;
58414;SDS011;44210;42.706;18.344;2022-07-03T10:05:39;7.20;;;3.58;;
58414;SDS011;44210;42.706;18.344;2022-07-03T10:08:06;7.93;;;3.65;;
58414;SDS011;44210;42.706;18.344;2022-07-03T10:10:33;8.93;;;4.60;;
58414;SDS011;44210;42.706;18.344;2022-07-03T10:13:00;8.27;;;3.92;;
58414;SDS011;44210;42.706;18.344;2022-07-03T10:15:27;9.50;;;3.78;;
58414;SDS011;44210;42.706;18.344;2022-07-03T10:17:55;9.38;;;3.67;;
58414;SDS011;44210;42.706;18.344;2022-07-03T10:20:28;8.53;;;4.60;;
58414;SDS011;44210;42.706;18.344;2022-07-03T10:22:54;7.07;;;4.78;;
58414;SDS011;44210;42.706;18.344;2022-07-03T10:25:21;10.80;;;3.58;;
58414;SDS011;44210;42.706;18.344;2022-07-03T10:27:47;6.88;;;3.70;;
58414;SDS011;44210;42.706;18.344;2022-07-03T10:30:14;13.30;;;4.10;;
58414;SDS011;44210;42.706;18.344;2022-07-03T10:32:40;9.68;;;4.15;;
58414;SDS011;44210;42.706;18.344;2022-07-03T10:35:07;5.57;;;3.72;;
58414;SDS011;44210;42.706;18.344;2022-07-03T10:37:41;9.05;;;3.63;;
58414;SDS011;44210;42.706;18.344;2022-07-03T10:40:24;8.23;;;3.65;;
58414;SDS011;44210;42.706;18.344;2022-07-03T10:43:14;12.10;;;4.30;;
58414;SDS011;44210;42.706;18.344;2022-07-03T10:51:20;9.02;;;3.58;;
58414;SDS011;44210;42.706;18.344;2022-07-03T10:53:47;10.07;;;4.00;;
58414;SDS011;44210;42.706;18.344;2022-07-03T10:56:13;16.10;;;4.07;;
58414;SDS011;44210;42.706;18.344;2022-07-03T10:58:57;11.48;;;3.88;;
58414;SDS011;44210;42.706;18.344;2022-07-03T11:01:27;15.68;;;4.50;;
58414;SDS011;44210;42.706;18.344;2022-07-03T11:03:54;20.60;;;3.60;;
58414;SDS011;44210;42.706;18.344;2022-07-03T11:06:22;7.57;;;3.22;;
58414;SDS011;44210;42.706;18.344;2022-07-03T11:09:02;6.60;;;2.90;;
58414;SDS011;44210;42.706;18.344;2022-07-03T11:11:42;9.27;;;3.78;;
58414;SDS011;44210;42.706;18.344;2022-07-03T11:14:27;6.30;;;3.03;;
58414;SDS011;44210;42.706;18.344;2022-07-03T11:19:58;10.55;;;3.15;;
58414;SDS011;44210;42.706;18.344;2022-07-03T11:22:51;11.70;;;4.15;;
58414;SDS011;44210;42.706;18.344;2022-07-03T11:25:18;8.35;;;3.30;;
58414;SDS011;44210;42.706;18.344;2022-07-03T11:27:45;9.38;;;4.13;;
58414;SDS011;44210;42.706;18.344;2022-07-03T11:30:13;9.57;;;3.50;;
58414;SDS011;44210;42.706;18.344;2022-07-03T11:32:50;10.32;;;3.17;;
58414;SDS011;44210;42.706;18.344;2022-07-03T11:38:01;6.90;;;3.00;;
58414;SDS011;44210;42.706;18.344;2022-07-03T11:40:27;9.45;;;3.15;;
58414;SDS011;44210;42.706;18.344;2022-07-03T11:42:55;5.47;;;2.97;;
58414;SDS011;44210;42.706;18.344;2022-07-03T11:45:21;8.23;;;3.58;;
58414;SDS011;44210;42.706;18.344;2022-07-03T11:47:48;6.93;;;2.95;;
58414;SDS011;44210;42.706;18.344;2022-07-03T11:50:14;5.57;;;2.67;;
58414;SDS011;44210;42.706;18.344;2022-07-03T11:52:40;5.60;;;2.40;;
58414;SDS011;44210;42.706;18.344;2022-07-03T11:55:06;5.30;;;2.90;;
58414;SDS011;44210;42.706;18.344;2022-07-03T11:57:32;4.53;;;2.60;;
58414;SDS011;44210;42.706;18.344;2022-07-03T12:00:05;9.40;;;2.65;;
58414;SDS011;44210;42.706;18.344;2022-07-03T12:02:31;9.57;;;3.28;;
58414;SDS011;44210;42.706;18.344;2022-07-03T12:04:57;4.70;;;2.38;;
58414;SDS011;44210;42.706;18.344;2022-07-03T12:07:23;4.05;;;3.00;;
58414;SDS011;44210;42.706;18.344;2022-07-03T12:09:49;3.30;;;2.50;;
58414;SDS011;44210;42.706;18.344;2022-07-03T12:12:15;4.53;;;2.55;;
58414;SDS011;44210;42.706;18.344;2022-07-03T12:17:09;14.48;;;2.72;;
58414;SDS011;44210;42.706;18.344;2022-07-03T12:19:35;5.63;;;2.92;;
58414;SDS011;44210;42.706;18.344;2022-07-03T12:22:02;6.07;;;2.60;;
58414;SDS011;44210;42.706;18.344;2022-07-03T12:24:28;7.18;;;2.92;;
58414;SDS011;44210;42.706;18.344;2022-07-03T12:26:54;14.15;;;2.45;;
58414;SDS011;44210;42.706;18.344;2022-07-03T12:29:20;5.07;;;2.63;;
58414;SDS011;44210;42.706;18.344;2022-07-03T12:31:47;8.77;;;2.75;;
58414;SDS011;44210;42.706;18.344;2022-07-03T12:34:14;8.93;;;2.60;;
58414;SDS011;44210;42.706;18.344;2022-07-03T12:36:41;6.22;;;2.40;;
58414;SDS011;44210;42.706;18.344;2022-07-03T12:39:19;4.80;;;2.53;;
58414;SDS011;44210;42.706;18.344;2022-07-03T12:41:45;8.13;;;2.58;;
58414;SDS011;44210;42.706;18.344;2022-07-03T12:44:11;5.30;;;2.65;;
58414;SDS011;44210;42.706;18.344;2022-07-03T12:46:43;7.53;;;2.63;;
58414;SDS011;44210;42.706;18.344;2022-07-03T12:49:09;6.68;;;3.60;;
58414;SDS011;44210;42.706;18.344;2022-07-03T12:51:36;4.85;;;2.45;;
58414;SDS011;44210;42.706;18.344;2022-07-03T12:56:35;8.30;;;2.95;;
58414;SDS011;44210;42.706;18.344;2022-07-03T12:59:01;6.32;;;2.78;;
58414;SDS011;44210;42.706;18.344;2022-07-03T13:01:43;11.57;;;2.95;;
58414;SDS011;44210;42.706;18.344;2022-07-03T13:04:09;8.70;;;2.60;;
58414;SDS011;44210;42.706;18.344;2022-07-03T13:06:43;3.70;;;2.22;;
58414;SDS011;44210;42.706;18.344;2022-07-03T13:09:10;4.45;;;3.08;;
58414;SDS011;44210;42.706;18.344;2022-07-03T13:11:38;8.75;;;3.13;;
58414;SDS011;44210;42.706;18.344;2022-07-03T13:14:08;4.45;;;2.63;;
58414;SDS011;44210;42.706;18.344;2022-07-03T13:16:36;4.63;;;2.47;;
58414;SDS011;44210;42.706;18.344;2022-07-03T13:19:04;6.60;;;2.67;;
58414;SDS011;44210;42.706;18.344;2022-07-03T13:21:30;5.70;;;2.65;;
58414;SDS011;44210;42.706;18.344;2022-07-03T13:23:56;12.40;;;2.10;;
58414;SDS011;44210;42.706;18.344;2022-07-03T13:26:22;4.70;;;2.60;;
58414;SDS011;44210;42.706;18.344;2022-07-03T13:28:48;6.15;;;2.63;;
58414;SDS011;44210;42.706;18.344;2022-07-03T13:31:14;8.57;;;2.60;;
58414;SDS011;44210;42.706;18.344;2022-07-03T13:33:40;6.60;;;2.45;;
58414;SDS011;44210;42.706;18.344;2022-07-03T13:36:07;5.93;;;2.13;;
58414;SDS011;44210;42.706;18.344;2022-07-03T13:38:33;6.82;;;2.13;;
58414;SDS011;44210;42.706;18.344;2022-07-03T13:40:59;4.28;;;2.10;;
58414;SDS011;44210;42.706;18.344;2022-07-03T13:43:26;7.35;;;2.67;;
58414;SDS011;44210;42.706;18.344;2022-07-03T13:45:52;9.20;;;2.15;;
58414;SDS011;44210;42.706;18.344;2022-07-03T13:48:18;6.88;;;2.33;;
58414;SDS011;44210;42.706;18.344;2022-07-03T13:50:44;5.57;;;2.40;;
58414;SDS011;44210;42.706;18.344;2022-07-03T13:53:11;4.93;;;2.30;;
58414;SDS011;44210;42.706;18.344;2022-07-03T13:55:38;4.00;;;2.30;;
58414;SDS011;44210;42.706;18.344;2022-07-03T13:58:05;2.17;;;1.80;;
58414;SDS011;44210;42.706;18.344;2022-07-03T14:00:32;3.92;;;2.47;;
58414;SDS011;44210;42.706;18.344;2022-07-03T14:02:58;4.82;;;2.05;;
58414;SDS011;44210;42.706;18.344;2022-07-03T14:05:24;2.63;;;2.05;;
58414;SDS011;44210;42.706;18.344;2022-07-03T14:07:50;12.73;;;2.83;;
58414;SDS011;44210;42.706;18.344;2022-07-03T14:10:16;7.95;;;2.10;;
58414;SDS011;44210;42.706;18.344;2022-07-03T14:12:43;2.47;;;1.95;;
58414;SDS011;44210;42.706;18.344;2022-07-03T14:15:09;5.38;;;2.17;;
58414;SDS011;44210;42.706;18.344;2022-07-03T14:17:35;9.32;;;2.65;;
58414;SDS011;44210;42.706;18.344;2022-07-03T14:20:01;4.38;;;1.90;;
58414;SDS011;44210;42.706;18.344;2022-07-03T14:22:28;2.90;;;2.22;;
58414;SDS011;44210;42.706;18.344;2022-07-03T14:24:54;6.22;;;2.50;;
58414;SDS011;44210;42.706;18.344;2022-07-03T14:27:20;4.18;;;2.42;;
58414;SDS011;44210;42.706;18.344;2022-07-03T14:30:04;4.90;;;2.83;;
58414;SDS011;44210;42.706;18.344;2022-07-03T14:32:50;8.52;;;3.58;;
58414;SDS011;44210;42.706;18.344;2022-07-03T14:35:16;7.88;;;3.22;;
58414;SDS011;44210;42.706;18.344;2022-07-03T14:37:42;5.93;;;3.25;;
58414;SDS011;44210;42.706;18.344;2022-07-03T14:40:08;7.72;;;3.40;;
58414;SDS011;44210;42.706;18.344;2022-07-03T14:42:34;7.03;;;3.38;;
58414;SDS011;44210;42.706;18.344;2022-07-03T14:45:00;8.98;;;3.88;;
58414;SDS011;44210;42.706;18.344;2022-07-03T14:47:26;5.75;;;3.17;;
58414;SDS011;44210;42.706;18.344;2022-07-03T14:49:52;9.35;;;3.47;;
58414;SDS011;44210;42.706;18.344;2022-07-03T14:52:18;7.70;;;2.95;;
58414;SDS011;44210;42.706;18.344;2022-07-03T14:54:44;9.25;;;3.10;;
58414;SDS011;44210;42.706;18.344;2022-07-03T14:57:36;5.47;;;3.35;;
58414;SDS011;44210;42.706;18.344;2022-07-03T15:00:06;10.73;;;3.20;;
58414;SDS011;44210;42.706;18.344;2022-07-03T15:02:40;8.93;;;3.65;;
58414;SDS011;44210;42.706;18.344;2022-07-03T15:05:08;10.45;;;3.45;;
58414;SDS011;44210;42.706;18.344;2022-07-03T15:10:16;9.02;;;3.45;;
58414;SDS011;44210;42.706;18.344;2022-07-03T15:12:43;10.60;;;4.18;;
58414;SDS011;44210;42.706;18.344;2022-07-03T15:15:11;13.98;;;3.58;;
58414;SDS011;44210;42.706;18.344;2022-07-03T15:17:39;8.98;;;3.85;;
58414;SDS011;44210;42.706;18.344;2022-07-03T15:20:06;8.00;;;3.90;;
58414;SDS011;44210;42.706;18.344;2022-07-03T15:22:35;8.85;;;3.20;;
58414;SDS011;44210;42.706;18.344;2022-07-03T15:25:04;9.52;;;3.75;;
58414;SDS011;44210;42.706;18.344;2022-07-03T15:27:31;11.85;;;3.88;;
58414;SDS011;44210;42.706;18.344;2022-07-03T15:29:57;11.27;;;4.20;;
58414;SDS011;44210;42.706;18.344;2022-07-03T15:32:23;8.40;;;3.63;;
58414;SDS011;44210;42.706;18.344;2022-07-03T15:34:49;9.98;;;4.03;;